Aviation Digital Data Service (ADDS)

Output produced by TAFs form (1900 UTC 19 September 2017)
found at http://www.aviationweather.gov/adds/tafs/
 
METAR text: UTTT 191830Z 07004KT 4000 FU NSC 19/06 Q1014 R08R/CLRD70 NOSIG
Conditions at: UTTT (TASKENT/YUZNI , UZ) observed 1830 UTC 19 September 2017
Temperature: 19.0°C (66°F)
Dewpoint: 6.0°C (43°F) [RH = 43%]
Pressure (altimeter): 29.94 inches Hg (1014.0 mb)
Winds: from the ENE (70 degrees) at 5 MPH (4 knots; 2.1 m/s)
Visibility: 2.49 miles (4.01 km)
Ceiling: at least 12,000 feet AGL
Clouds: sky clear below 12,000 feet AGL
Weather: FU  (smoke)

Forecast for: UTTT (TASKENT/YUZNI , UZ)
Text: TAF UTTT 191700Z 1918/2018 08012KT 7000 NSC
Forecast period: 1800 UTC 19 September 2017 to 1800 UTC 20 September 2017
Forecast type: FROM: standard forecast or significant change
Winds: from the E (80 degrees) at 14 MPH (12 knots; 6.2 m/s)
Visibility: 4 miles (7 km)
Clouds: not forecast
Weather: no significant weather forecast for this period